sensor_id;sensor_type;location;lat;lon;timestamp;P1;durP1;ratioP1;P2;durP2;ratioP2
10430;SDS011;5262;59.958;17.726;2023-06-14T00:01:43;6.50;;;3.40;;
10430;SDS011;5262;59.958;17.726;2023-06-14T00:04:10;4.87;;;3.40;;
10430;SDS011;5262;59.958;17.726;2023-06-14T00:06:37;4.27;;;3.43;;
10430;SDS011;5262;59.958;17.726;2023-06-14T00:09:03;4.80;;;3.70;;
10430;SDS011;5262;59.958;17.726;2023-06-14T00:11:30;5.20;;;3.63;;
10430;SDS011;5262;59.958;17.726;2023-06-14T00:13:56;4.07;;;3.43;;
10430;SDS011;5262;59.958;17.726;2023-06-14T00:16:22;3.80;;;3.50;;
10430;SDS011;5262;59.958;17.726;2023-06-14T00:18:48;4.13;;;3.20;;
10430;SDS011;5262;59.958;17.726;2023-06-14T00:21:14;4.80;;;3.70;;
10430;SDS011;5262;59.958;17.726;2023-06-14T00:23:40;5.37;;;3.77;;
10430;SDS011;5262;59.958;17.726;2023-06-14T00:26:05;6.37;;;3.67;;
10430;SDS011;5262;59.958;17.726;2023-06-14T00:28:31;6.30;;;3.67;;
10430;SDS011;5262;59.958;17.726;2023-06-14T00:30:56;6.63;;;3.47;;
10430;SDS011;5262;59.958;17.726;2023-06-14T00:33:22;4.07;;;3.27;;
10430;SDS011;5262;59.958;17.726;2023-06-14T00:35:48;4.53;;;3.50;;
10430;SDS011;5262;59.958;17.726;2023-06-14T00:38:13;3.93;;;3.50;;
10430;SDS011;5262;59.958;17.726;2023-06-14T00:40:39;5.73;;;3.60;;
10430;SDS011;5262;59.958;17.726;2023-06-14T00:43:05;4.47;;;3.70;;
10430;SDS011;5262;59.958;17.726;2023-06-14T00:45:31;3.80;;;3.40;;
10430;SDS011;5262;59.958;17.726;2023-06-14T00:48:00;5.17;;;3.77;;
10430;SDS011;5262;59.958;17.726;2023-06-14T00:50:27;6.73;;;3.63;;
10430;SDS011;5262;59.958;17.726;2023-06-14T00:52:54;7.20;;;3.50;;
10430;SDS011;5262;59.958;17.726;2023-06-14T00:55:21;8.87;;;3.60;;
10430;SDS011;5262;59.958;17.726;2023-06-14T00:57:47;4.80;;;3.57;;
10430;SDS011;5262;59.958;17.726;2023-06-14T01:00:14;5.40;;;3.20;;
10430;SDS011;5262;59.958;17.726;2023-06-14T01:02:40;5.33;;;3.63;;
10430;SDS011;5262;59.958;17.726;2023-06-14T01:05:06;4.33;;;3.90;;
10430;SDS011;5262;59.958;17.726;2023-06-14T01:16:03;4.73;;;3.17;;
10430;SDS011;5262;59.958;17.726;2023-06-14T01:18:31;17.00;;;4.30;;
10430;SDS011;5262;59.958;17.726;2023-06-14T01:20:57;7.50;;;3.50;;
10430;SDS011;5262;59.958;17.726;2023-06-14T01:23:23;5.37;;;3.30;;
10430;SDS011;5262;59.958;17.726;2023-06-14T01:25:49;5.43;;;3.30;;
10430;SDS011;5262;59.958;17.726;2023-06-14T01:28:19;6.40;;;3.80;;
10430;SDS011;5262;59.958;17.726;2023-06-14T01:30:52;6.17;;;3.57;;
10430;SDS011;5262;59.958;17.726;2023-06-14T01:33:23;4.20;;;3.80;;
10430;SDS011;5262;59.958;17.726;2023-06-14T01:35:52;6.00;;;3.93;;
10430;SDS011;5262;59.958;17.726;2023-06-14T01:38:23;4.20;;;3.43;;
10430;SDS011;5262;59.958;17.726;2023-06-14T01:40:51;5.13;;;3.43;;
10430;SDS011;5262;59.958;17.726;2023-06-14T01:43:20;5.83;;;3.63;;
10430;SDS011;5262;59.958;17.726;2023-06-14T01:45:46;5.10;;;3.60;;
10430;SDS011;5262;59.958;17.726;2023-06-14T01:48:16;4.03;;;3.60;;
10430;SDS011;5262;59.958;17.726;2023-06-14T01:50:42;4.60;;;3.60;;
10430;SDS011;5262;59.958;17.726;2023-06-14T01:53:08;3.50;;;3.17;;
10430;SDS011;5262;59.958;17.726;2023-06-14T01:55:35;5.57;;;3.67;;
10430;SDS011;5262;59.958;17.726;2023-06-14T01:58:05;6.63;;;3.67;;
10430;SDS011;5262;59.958;17.726;2023-06-14T02:00:31;4.37;;;3.80;;
10430;SDS011;5262;59.958;17.726;2023-06-14T02:02:57;3.83;;;3.53;;
10430;SDS011;5262;59.958;17.726;2023-06-14T02:05:23;5.80;;;4.00;;
10430;SDS011;5262;59.958;17.726;2023-06-14T02:07:49;4.80;;;3.93;;
10430;SDS011;5262;59.958;17.726;2023-06-14T02:10:15;4.23;;;3.83;;
10430;SDS011;5262;59.958;17.726;2023-06-14T02:12:42;4.17;;;3.53;;
10430;SDS011;5262;59.958;17.726;2023-06-14T02:15:09;5.97;;;4.00;;
10430;SDS011;5262;59.958;17.726;2023-06-14T02:17:41;3.97;;;3.67;;
10430;SDS011;5262;59.958;17.726;2023-06-14T02:20:14;4.87;;;3.90;;
10430;SDS011;5262;59.958;17.726;2023-06-14T02:22:40;5.00;;;4.10;;
10430;SDS011;5262;59.958;17.726;2023-06-14T02:25:06;4.03;;;3.63;;
10430;SDS011;5262;59.958;17.726;2023-06-14T02:27:33;6.87;;;3.90;;
10430;SDS011;5262;59.958;17.726;2023-06-14T02:29:59;3.83;;;3.53;;
10430;SDS011;5262;59.958;17.726;2023-06-14T02:32:25;5.50;;;3.90;;
10430;SDS011;5262;59.958;17.726;2023-06-14T02:34:54;4.70;;;3.77;;
10430;SDS011;5262;59.958;17.726;2023-06-14T02:37:20;4.60;;;4.10;;
10430;SDS011;5262;59.958;17.726;2023-06-14T02:39:45;4.97;;;3.83;;
10430;SDS011;5262;59.958;17.726;2023-06-14T02:42:11;5.03;;;3.97;;
10430;SDS011;5262;59.958;17.726;2023-06-14T02:44:37;4.00;;;3.60;;
10430;SDS011;5262;59.958;17.726;2023-06-14T02:47:03;4.60;;;4.17;;
10430;SDS011;5262;59.958;17.726;2023-06-14T02:49:30;5.83;;;4.00;;
10430;SDS011;5262;59.958;17.726;2023-06-14T02:51:55;4.30;;;3.90;;
10430;SDS011;5262;59.958;17.726;2023-06-14T02:54:21;4.43;;;3.90;;
10430;SDS011;5262;59.958;17.726;2023-06-14T02:56:47;4.57;;;4.17;;
10430;SDS011;5262;59.958;17.726;2023-06-14T02:59:13;4.23;;;3.83;;
10430;SDS011;5262;59.958;17.726;2023-06-14T03:01:40;4.40;;;3.87;;
10430;SDS011;5262;59.958;17.726;2023-06-14T03:04:09;4.73;;;3.60;;
10430;SDS011;5262;59.958;17.726;2023-06-14T03:06:34;4.87;;;4.03;;
10430;SDS011;5262;59.958;17.726;2023-06-14T03:09:01;4.33;;;3.93;;
10430;SDS011;5262;59.958;17.726;2023-06-14T03:11:30;4.87;;;4.23;;
10430;SDS011;5262;59.958;17.726;2023-06-14T03:13:56;5.17;;;3.73;;
10430;SDS011;5262;59.958;17.726;2023-06-14T03:16:22;3.90;;;3.53;;
10430;SDS011;5262;59.958;17.726;2023-06-14T03:18:52;6.13;;;4.23;;
10430;SDS011;5262;59.958;17.726;2023-06-14T03:21:21;4.97;;;4.20;;
10430;SDS011;5262;59.958;17.726;2023-06-14T03:23:47;6.50;;;3.57;;
10430;SDS011;5262;59.958;17.726;2023-06-14T03:26:13;3.90;;;3.53;;
10430;SDS011;5262;59.958;17.726;2023-06-14T03:28:43;5.50;;;3.80;;
10430;SDS011;5262;59.958;17.726;2023-06-14T03:31:12;3.97;;;3.60;;
10430;SDS011;5262;59.958;17.726;2023-06-14T03:33:38;4.33;;;3.77;;
10430;SDS011;5262;59.958;17.726;2023-06-14T03:36:04;5.33;;;3.70;;
10430;SDS011;5262;59.958;17.726;2023-06-14T03:38:30;4.23;;;3.70;;
10430;SDS011;5262;59.958;17.726;2023-06-14T03:40:56;4.47;;;4.07;;
10430;SDS011;5262;59.958;17.726;2023-06-14T03:43:21;4.17;;;3.77;;
10430;SDS011;5262;59.958;17.726;2023-06-14T03:45:47;4.50;;;3.67;;
10430;SDS011;5262;59.958;17.726;2023-06-14T03:48:13;4.53;;;3.83;;
10430;SDS011;5262;59.958;17.726;2023-06-14T03:50:38;3.80;;;3.50;;
10430;SDS011;5262;59.958;17.726;2023-06-14T03:53:04;4.43;;;4.03;;
10430;SDS011;5262;59.958;17.726;2023-06-14T03:55:30;4.43;;;3.60;;
10430;SDS011;5262;59.958;17.726;2023-06-14T03:57:56;6.10;;;3.87;;
10430;SDS011;5262;59.958;17.726;2023-06-14T04:00:22;4.97;;;3.70;;
10430;SDS011;5262;59.958;17.726;2023-06-14T04:02:48;4.10;;;3.80;;
10430;SDS011;5262;59.958;17.726;2023-06-14T04:05:14;4.20;;;3.80;;
10430;SDS011;5262;59.958;17.726;2023-06-14T04:07:41;6.43;;;4.40;;
10430;SDS011;5262;59.958;17.726;2023-06-14T04:10:10;4.53;;;3.50;;
10430;SDS011;5262;59.958;17.726;2023-06-14T04:12:36;4.27;;;3.87;;
10430;SDS011;5262;59.958;17.726;2023-06-14T04:15:02;4.77;;;4.30;;
10430;SDS011;5262;59.958;17.726;2023-06-14T04:17:28;4.10;;;3.80;;
10430;SDS011;5262;59.958;17.726;2023-06-14T04:19:54;4.33;;;3.93;;
10430;SDS011;5262;59.958;17.726;2023-06-14T04:22:20;4.23;;;3.83;;
10430;SDS011;5262;59.958;17.726;2023-06-14T04:24:46;5.43;;;3.67;;
10430;SDS011;5262;59.958;17.726;2023-06-14T04:27:11;5.30;;;4.00;;
10430;SDS011;5262;59.958;17.726;2023-06-14T04:29:39;6.87;;;4.00;;
10430;SDS011;5262;59.958;17.726;2023-06-14T04:32:08;4.07;;;3.43;;
10430;SDS011;5262;59.958;17.726;2023-06-14T04:34:35;6.50;;;4.20;;
10430;SDS011;5262;59.958;17.726;2023-06-14T04:37:02;3.97;;;3.57;;
10430;SDS011;5262;59.958;17.726;2023-06-14T04:39:28;5.93;;;3.77;;
10430;SDS011;5262;59.958;17.726;2023-06-14T04:41:54;4.63;;;4.03;;
10430;SDS011;5262;59.958;17.726;2023-06-14T04:44:22;4.87;;;3.80;;
10430;SDS011;5262;59.958;17.726;2023-06-14T04:46:54;5.10;;;3.87;;
10430;SDS011;5262;59.958;17.726;2023-06-14T04:49:23;4.77;;;4.10;;
10430;SDS011;5262;59.958;17.726;2023-06-14T04:51:49;5.83;;;4.03;;
10430;SDS011;5262;59.958;17.726;2023-06-14T04:54:22;3.97;;;3.67;;
10430;SDS011;5262;59.958;17.726;2023-06-14T04:56:50;4.37;;;3.90;;
10430;SDS011;5262;59.958;17.726;2023-06-14T04:59:16;4.27;;;3.87;;
10430;SDS011;5262;59.958;17.726;2023-06-14T05:01:42;4.70;;;3.70;;
10430;SDS011;5262;59.958;17.726;2023-06-14T05:04:13;4.50;;;4.10;;
10430;SDS011;5262;59.958;17.726;2023-06-14T05:06:40;4.60;;;3.47;;
10430;SDS011;5262;59.958;17.726;2023-06-14T05:09:12;4.07;;;3.60;;
10430;SDS011;5262;59.958;17.726;2023-06-14T05:11:39;5.97;;;3.70;;
10430;SDS011;5262;59.958;17.726;2023-06-14T05:14:05;5.70;;;3.60;;
10430;SDS011;5262;59.958;17.726;2023-06-14T05:16:31;5.07;;;3.50;;
10430;SDS011;5262;59.958;17.726;2023-06-14T05:18:57;3.77;;;3.20;;
10430;SDS011;5262;59.958;17.726;2023-06-14T05:21:23;5.03;;;3.53;;
10430;SDS011;5262;59.958;17.726;2023-06-14T05:23:48;3.53;;;3.23;;
10430;SDS011;5262;59.958;17.726;2023-06-14T05:26:15;3.70;;;3.40;;
10430;SDS011;5262;59.958;17.726;2023-06-14T05:28:41;3.90;;;3.50;;
10430;SDS011;5262;59.958;17.726;2023-06-14T05:31:07;3.83;;;3.30;;
10430;SDS011;5262;59.958;17.726;2023-06-14T05:33:32;3.53;;;3.23;;
10430;SDS011;5262;59.958;17.726;2023-06-14T05:35:58;5.37;;;3.17;;
10430;SDS011;5262;59.958;17.726;2023-06-14T05:38:24;3.90;;;2.90;;
10430;SDS011;5262;59.958;17.726;2023-06-14T05:40:50;3.30;;;3.00;;
10430;SDS011;5262;59.958;17.726;2023-06-14T05:43:16;3.00;;;2.80;;
10430;SDS011;5262;59.958;17.726;2023-06-14T05:45:41;5.70;;;2.73;;
10430;SDS011;5262;59.958;17.726;2023-06-14T05:48:07;6.30;;;3.13;;
10430;SDS011;5262;59.958;17.726;2023-06-14T05:50:33;2.90;;;2.47;;
10430;SDS011;5262;59.958;17.726;2023-06-14T05:52:59;3.50;;;3.20;;
10430;SDS011;5262;59.958;17.726;2023-06-14T05:55:24;4.97;;;2.77;;
10430;SDS011;5262;59.958;17.726;2023-06-14T05:57:50;3.00;;;2.70;;
10430;SDS011;5262;59.958;17.726;2023-06-14T06:00:17;3.33;;;2.63;;
10430;SDS011;5262;59.958;17.726;2023-06-14T06:02:43;4.23;;;2.90;;
10430;SDS011;5262;59.958;17.726;2023-06-14T06:05:12;3.47;;;2.67;;
10430;SDS011;5262;59.958;17.726;2023-06-14T06:07:38;3.73;;;2.67;;
10430;SDS011;5262;59.958;17.726;2023-06-14T06:10:09;3.53;;;3.20;;
10430;SDS011;5262;59.958;17.726;2023-06-14T06:12:35;3.00;;;2.47;;
10430;SDS011;5262;59.958;17.726;2023-06-14T06:15:01;3.07;;;2.73;;
10430;SDS011;5262;59.958;17.726;2023-06-14T06:17:26;3.20;;;2.67;;
10430;SDS011;5262;59.958;17.726;2023-06-14T06:19:52;4.55;;;2.90;;
10430;SDS011;5262;59.958;17.726;2023-06-14T06:22:17;3.08;;;2.70;;
10430;SDS011;5262;59.958;17.726;2023-06-14T06:24:43;3.28;;;2.88;;
10430;SDS011;5262;59.958;17.726;2023-06-14T06:27:09;4.45;;;2.83;;
10430;SDS011;5262;59.958;17.726;2023-06-14T06:29:35;4.53;;;2.85;;
10430;SDS011;5262;59.958;17.726;2023-06-14T06:32:01;3.67;;;2.65;;
10430;SDS011;5262;59.958;17.726;2023-06-14T06:34:27;3.30;;;2.85;;
10430;SDS011;5262;59.958;17.726;2023-06-14T06:36:52;2.80;;;2.60;;
10430;SDS011;5262;59.958;17.726;2023-06-14T06:39:18;4.22;;;3.00;;
10430;SDS011;5262;59.958;17.726;2023-06-14T06:41:44;3.53;;;2.80;;
10430;SDS011;5262;59.958;17.726;2023-06-14T06:44:09;6.13;;;3.08;;
10430;SDS011;5262;59.958;17.726;2023-06-14T06:46:36;2.70;;;2.50;;
10430;SDS011;5262;59.958;17.726;2023-06-14T06:49:09;9.27;;;3.08;;
10430;SDS011;5262;59.958;17.726;2023-06-14T06:51:37;5.93;;;3.10;;
10430;SDS011;5262;59.958;17.726;2023-06-14T06:54:07;4.47;;;2.70;;
10430;SDS011;5262;59.958;17.726;2023-06-14T06:56:33;4.63;;;2.63;;
10430;SDS011;5262;59.958;17.726;2023-06-14T06:58:59;4.75;;;3.20;;
10430;SDS011;5262;59.958;17.726;2023-06-14T07:01:25;5.72;;;2.72;;
10430;SDS011;5262;59.958;17.726;2023-06-14T07:03:51;3.85;;;2.80;;
10430;SDS011;5262;59.958;17.726;2023-06-14T07:06:17;3.83;;;2.60;;
10430;SDS011;5262;59.958;17.726;2023-06-14T07:08:44;3.40;;;2.70;;
10430;SDS011;5262;59.958;17.726;2023-06-14T07:11:09;5.25;;;3.03;;
10430;SDS011;5262;59.958;17.726;2023-06-14T07:13:35;3.95;;;2.60;;
10430;SDS011;5262;59.958;17.726;2023-06-14T07:16:01;3.35;;;2.90;;
10430;SDS011;5262;59.958;17.726;2023-06-14T07:18:27;3.10;;;2.85;;
10430;SDS011;5262;59.958;17.726;2023-06-14T07:20:53;3.05;;;2.75;;
10430;SDS011;5262;59.958;17.726;2023-06-14T07:23:22;3.00;;;2.70;;
10430;SDS011;5262;59.958;17.726;2023-06-14T07:25:48;3.38;;;3.00;;
10430;SDS011;5262;59.958;17.726;2023-06-14T07:28:16;4.00;;;3.00;;
10430;SDS011;5262;59.958;17.726;2023-06-14T07:30:42;4.82;;;2.97;;
10430;SDS011;5262;59.958;17.726;2023-06-14T07:33:08;4.95;;;3.15;;
10430;SDS011;5262;59.958;17.726;2023-06-14T07:35:36;3.15;;;2.85;;
10430;SDS011;5262;59.958;17.726;2023-06-14T07:38:02;4.38;;;3.00;;
10430;SDS011;5262;59.958;17.726;2023-06-14T07:40:27;4.63;;;3.45;;
10430;SDS011;5262;59.958;17.726;2023-06-14T07:42:53;5.40;;;2.88;;
10430;SDS011;5262;59.958;17.726;2023-06-14T07:45:19;3.80;;;3.17;;
10430;SDS011;5262;59.958;17.726;2023-06-14T07:47:45;2.85;;;2.65;;
10430;SDS011;5262;59.958;17.726;2023-06-14T07:50:11;3.60;;;3.08;;
10430;SDS011;5262;59.958;17.726;2023-06-14T07:52:38;3.08;;;2.88;;
10430;SDS011;5262;59.958;17.726;2023-06-14T07:55:04;2.95;;;2.75;;
10430;SDS011;5262;59.958;17.726;2023-06-14T07:57:30;3.25;;;2.90;;
10430;SDS011;5262;59.958;17.726;2023-06-14T07:59:56;3.40;;;3.10;;
10430;SDS011;5262;59.958;17.726;2023-06-14T08:02:22;3.75;;;3.10;;
10430;SDS011;5262;59.958;17.726;2023-06-14T08:04:48;3.88;;;3.15;;
10430;SDS011;5262;59.958;17.726;2023-06-14T08:07:14;4.50;;;3.40;;
10430;SDS011;5262;59.958;17.726;2023-06-14T08:09:40;4.45;;;3.45;;
10430;SDS011;5262;59.958;17.726;2023-06-14T08:12:06;3.40;;;3.10;;
10430;SDS011;5262;59.958;17.726;2023-06-14T08:14:34;4.78;;;3.90;;
10430;SDS011;5262;59.958;17.726;2023-06-14T08:17:00;4.13;;;3.75;;
10430;SDS011;5262;59.958;17.726;2023-06-14T08:19:27;4.47;;;4.07;;
10430;SDS011;5262;59.958;17.726;2023-06-14T08:21:53;4.07;;;3.50;;
10430;SDS011;5262;59.958;17.726;2023-06-14T08:24:23;6.68;;;4.00;;
10430;SDS011;5262;59.958;17.726;2023-06-14T08:26:54;5.05;;;3.92;;
10430;SDS011;5262;59.958;17.726;2023-06-14T08:29:21;3.75;;;3.45;;
10430;SDS011;5262;59.958;17.726;2023-06-14T08:31:47;3.92;;;3.60;;
10430;SDS011;5262;59.958;17.726;2023-06-14T08:34:13;5.78;;;3.70;;
10430;SDS011;5262;59.958;17.726;2023-06-14T08:36:39;7.65;;;3.92;;
10430;SDS011;5262;59.958;17.726;2023-06-14T08:39:04;3.53;;;3.22;;
10430;SDS011;5262;59.958;17.726;2023-06-14T08:41:31;4.32;;;3.65;;
10430;SDS011;5262;59.958;17.726;2023-06-14T08:43:57;3.90;;;3.53;;
10430;SDS011;5262;59.958;17.726;2023-06-14T08:46:25;5.20;;;3.70;;
10430;SDS011;5262;59.958;17.726;2023-06-14T08:48:52;3.97;;;3.47;;
10430;SDS011;5262;59.958;17.726;2023-06-14T08:51:23;6.50;;;3.80;;
10430;SDS011;5262;59.958;17.726;2023-06-14T08:53:52;3.70;;;3.40;;
10430;SDS011;5262;59.958;17.726;2023-06-14T08:56:23;3.72;;;3.30;;
10430;SDS011;5262;59.958;17.726;2023-06-14T08:58:53;7.05;;;3.85;;
10430;SDS011;5262;59.958;17.726;2023-06-14T09:01:19;4.57;;;3.92;;
10430;SDS011;5262;59.958;17.726;2023-06-14T09:03:46;4.25;;;3.30;;
10430;SDS011;5262;59.958;17.726;2023-06-14T09:06:13;4.35;;;4.00;;
10430;SDS011;5262;59.958;17.726;2023-06-14T09:08:43;4.35;;;3.95;;
10430;SDS011;5262;59.958;17.726;2023-06-14T09:11:10;4.70;;;3.83;;
10430;SDS011;5262;59.958;17.726;2023-06-14T09:13:40;4.45;;;4.07;;
10430;SDS011;5262;59.958;17.726;2023-06-14T09:16:06;4.38;;;4.07;;
10430;SDS011;5262;59.958;17.726;2023-06-14T09:18:39;3.85;;;3.55;;
10430;SDS011;5262;59.958;17.726;2023-06-14T09:21:06;4.85;;;3.70;;
10430;SDS011;5262;59.958;17.726;2023-06-14T09:23:42;5.07;;;3.67;;
10430;SDS011;5262;59.958;17.726;2023-06-14T09:26:13;4.65;;;3.97;;
10430;SDS011;5262;59.958;17.726;2023-06-14T09:28:45;4.35;;;3.95;;
10430;SDS011;5262;59.958;17.726;2023-06-14T09:31:12;6.30;;;3.72;;
10430;SDS011;5262;59.958;17.726;2023-06-14T09:33:46;4.25;;;3.85;;
10430;SDS011;5262;59.958;17.726;2023-06-14T09:36:23;4.85;;;4.05;;
10430;SDS011;5262;59.958;17.726;2023-06-14T09:38:53;5.32;;;4.07;;
10430;SDS011;5262;59.958;17.726;2023-06-14T09:41:38;4.65;;;3.80;;
10430;SDS011;5262;59.958;17.726;2023-06-14T09:44:06;6.82;;;4.10;;
10430;SDS011;5262;59.958;17.726;2023-06-14T09:46:33;5.60;;;3.70;;
10430;SDS011;5262;59.958;17.726;2023-06-14T09:49:01;5.90;;;3.95;;
10430;SDS011;5262;59.958;17.726;2023-06-14T09:51:28;4.43;;;4.00;;
10430;SDS011;5262;59.958;17.726;2023-06-14T09:54:00;3.92;;;3.58;;
10430;SDS011;5262;59.958;17.726;2023-06-14T09:56:30;3.90;;;3.60;;
10430;SDS011;5262;59.958;17.726;2023-06-14T09:58:57;3.78;;;3.42;;
10430;SDS011;5262;59.958;17.726;2023-06-14T10:01:24;4.13;;;3.83;;
10430;SDS011;5262;59.958;17.726;2023-06-14T10:03:53;4.05;;;3.70;;
10430;SDS011;5262;59.958;17.726;2023-06-14T10:06:24;4.20;;;3.80;;
10430;SDS011;5262;59.958;17.726;2023-06-14T10:08:52;4.50;;;4.10;;
10430;SDS011;5262;59.958;17.726;2023-06-14T10:11:21;4.45;;;4.05;;
10430;SDS011;5262;59.958;17.726;2023-06-14T10:13:47;4.72;;;4.18;;
10430;SDS011;5262;59.958;17.726;2023-06-14T10:16:15;4.95;;;4.00;;
10430;SDS011;5262;59.958;17.726;2023-06-14T10:19:13;3.75;;;3.45;;
10430;SDS011;5262;59.958;17.726;2023-06-14T10:22:21;4.40;;;4.00;;
10430;SDS011;5262;59.958;17.726;2023-06-14T10:25:07;5.43;;;4.10;;
10430;SDS011;5262;59.958;17.726;2023-06-14T10:27:50;3.88;;;3.55;;
10430;SDS011;5262;59.958;17.726;2023-06-14T10:30:16;4.30;;;3.88;;
10430;SDS011;5262;59.958;17.726;2023-06-14T10:35:31;6.35;;;3.78;;
10430;SDS011;5262;59.958;17.726;2023-06-14T10:38:11;4.75;;;3.95;;
10430;SDS011;5262;59.958;17.726;2023-06-14T10:40:37;4.35;;;3.95;;
10430;SDS011;5262;59.958;17.726;2023-06-14T10:43:23;5.40;;;3.95;;
10430;SDS011;5262;59.958;17.726;2023-06-14T10:48:41;4.63;;;4.00;;
10430;SDS011;5262;59.958;17.726;2023-06-14T10:51:18;4.20;;;3.75;;
10430;SDS011;5262;59.958;17.726;2023-06-14T10:53:46;5.63;;;4.18;;
10430;SDS011;5262;59.958;17.726;2023-06-14T10:56:23;4.82;;;4.15;;
10430;SDS011;5262;59.958;17.726;2023-06-14T10:58:52;4.35;;;3.90;;
10430;SDS011;5262;59.958;17.726;2023-06-14T11:01:19;4.38;;;3.97;;
10430;SDS011;5262;59.958;17.726;2023-06-14T11:04:01;4.57;;;4.18;;
10430;SDS011;5262;59.958;17.726;2023-06-14T11:06:38;5.07;;;3.90;;
10430;SDS011;5262;59.958;17.726;2023-06-14T11:12:15;4.28;;;3.88;;
10430;SDS011;5262;59.958;17.726;2023-06-14T11:14:42;4.40;;;4.05;;
10430;SDS011;5262;59.958;17.726;2023-06-14T11:17:11;4.32;;;3.97;;
10430;SDS011;5262;59.958;17.726;2023-06-14T11:19:37;4.85;;;3.63;;
10430;SDS011;5262;59.958;17.726;2023-06-14T11:22:03;4.45;;;3.97;;
10430;SDS011;5262;59.958;17.726;2023-06-14T11:24:28;4.25;;;3.85;;
10430;SDS011;5262;59.958;17.726;2023-06-14T11:26:54;4.95;;;3.67;;
10430;SDS011;5262;59.958;17.726;2023-06-14T11:29:22;4.43;;;4.03;;
10430;SDS011;5262;59.958;17.726;2023-06-14T11:31:47;4.60;;;4.20;;
10430;SDS011;5262;59.958;17.726;2023-06-14T11:34:13;4.60;;;4.22;;
10430;SDS011;5262;59.958;17.726;2023-06-14T11:36:39;4.40;;;3.33;;
10430;SDS011;5262;59.958;17.726;2023-06-14T11:39:05;4.25;;;3.85;;
10430;SDS011;5262;59.958;17.726;2023-06-14T11:41:38;6.35;;;3.90;;
10430;SDS011;5262;59.958;17.726;2023-06-14T11:44:07;4.78;;;4.28;;
10430;SDS011;5262;59.958;17.726;2023-06-14T11:46:33;4.35;;;3.92;;
10430;SDS011;5262;59.958;17.726;2023-06-14T11:48:59;4.47;;;4.07;;
10430;SDS011;5262;59.958;17.726;2023-06-14T11:51:28;5.03;;;4.50;;
10430;SDS011;5262;59.958;17.726;2023-06-14T11:53:54;4.35;;;4.03;;
10430;SDS011;5262;59.958;17.726;2023-06-14T11:56:20;4.80;;;4.30;;
10430;SDS011;5262;59.958;17.726;2023-06-14T11:58:46;4.75;;;4.25;;
10430;SDS011;5262;59.958;17.726;2023-06-14T12:01:18;7.18;;;4.25;;
10430;SDS011;5262;59.958;17.726;2023-06-14T12:03:47;4.45;;;4.05;;
10430;SDS011;5262;59.958;17.726;2023-06-14T12:06:14;5.45;;;3.95;;
10430;SDS011;5262;59.958;17.726;2023-06-14T12:08:40;4.20;;;3.90;;
10430;SDS011;5262;59.958;17.726;2023-06-14T12:11:11;4.45;;;4.05;;
10430;SDS011;5262;59.958;17.726;2023-06-14T12:13:39;5.80;;;4.03;;
10430;SDS011;5262;59.958;17.726;2023-06-14T12:16:06;4.40;;;4.00;;
10430;SDS011;5262;59.958;17.726;2023-06-14T12:18:34;4.57;;;4.18;;
10430;SDS011;5262;59.958;17.726;2023-06-14T12:21:01;4.47;;;4.07;;
10430;SDS011;5262;59.958;17.726;2023-06-14T12:26:12;5.50;;;4.22;;
10430;SDS011;5262;59.958;17.726;2023-06-14T12:28:42;5.05;;;3.63;;
10430;SDS011;5262;59.958;17.726;2023-06-14T12:31:10;4.55;;;4.10;;
10430;SDS011;5262;59.958;17.726;2023-06-14T12:33:37;4.97;;;4.40;;
10430;SDS011;5262;59.958;17.726;2023-06-14T12:36:03;4.30;;;3.92;;
10430;SDS011;5262;59.958;17.726;2023-06-14T12:38:31;4.95;;;3.72;;
10430;SDS011;5262;59.958;17.726;2023-06-14T12:40:57;4.50;;;4.10;;
10430;SDS011;5262;59.958;17.726;2023-06-14T12:43:23;4.25;;;3.90;;
10430;SDS011;5262;59.958;17.726;2023-06-14T12:45:48;4.32;;;3.88;;
10430;SDS011;5262;59.958;17.726;2023-06-14T12:48:14;4.40;;;4.00;;
10430;SDS011;5262;59.958;17.726;2023-06-14T12:50:40;5.80;;;4.10;;
10430;SDS011;5262;59.958;17.726;2023-06-14T12:53:06;4.45;;;4.05;;
10430;SDS011;5262;59.958;17.726;2023-06-14T12:55:32;5.13;;;3.95;;
10430;SDS011;5262;59.958;17.726;2023-06-14T12:57:58;4.50;;;4.13;;
10430;SDS011;5262;59.958;17.726;2023-06-14T13:00:23;4.53;;;4.07;;
10430;SDS011;5262;59.958;17.726;2023-06-14T13:02:51;4.18;;;3.88;;
10430;SDS011;5262;59.958;17.726;2023-06-14T13:05:17;4.28;;;3.88;;
10430;SDS011;5262;59.958;17.726;2023-06-14T13:07:43;4.53;;;4.13;;
10430;SDS011;5262;59.958;17.726;2023-06-14T13:10:09;6.32;;;4.25;;
10430;SDS011;5262;59.958;17.726;2023-06-14T13:12:35;4.15;;;3.75;;
10430;SDS011;5262;59.958;17.726;2023-06-14T13:15:01;4.40;;;4.00;;
10430;SDS011;5262;59.958;17.726;2023-06-14T13:17:27;4.60;;;4.10;;
10430;SDS011;5262;59.958;17.726;2023-06-14T13:19:52;4.78;;;4.03;;
10430;SDS011;5262;59.958;17.726;2023-06-14T13:22:18;8.90;;;3.83;;
10430;SDS011;5262;59.958;17.726;2023-06-14T13:24:44;4.72;;;4.20;;
10430;SDS011;5262;59.958;17.726;2023-06-14T13:27:10;4.68;;;3.95;;
10430;SDS011;5262;59.958;17.726;2023-06-14T13:29:36;4.50;;;4.10;;
10430;SDS011;5262;59.958;17.726;2023-06-14T13:32:02;7.32;;;4.10;;
10430;SDS011;5262;59.958;17.726;2023-06-14T13:34:28;4.32;;;3.92;;
10430;SDS011;5262;59.958;17.726;2023-06-14T13:36:54;7.20;;;4.07;;
10430;SDS011;5262;59.958;17.726;2023-06-14T13:39:20;4.15;;;3.75;;
10430;SDS011;5262;59.958;17.726;2023-06-14T13:41:46;5.93;;;3.92;;
10430;SDS011;5262;59.958;17.726;2023-06-14T13:44:11;4.22;;;3.83;;
10430;SDS011;5262;59.958;17.726;2023-06-14T13:46:39;5.82;;;3.90;;
10430;SDS011;5262;59.958;17.726;2023-06-14T13:49:05;4.32;;;3.92;;
10430;SDS011;5262;59.958;17.726;2023-06-14T13:51:31;5.82;;;3.88;;
10430;SDS011;5262;59.958;17.726;2023-06-14T13:53:58;4.57;;;4.03;;
10430;SDS011;5262;59.958;17.726;2023-06-14T13:56:23;4.95;;;4.03;;
10430;SDS011;5262;59.958;17.726;2023-06-14T13:58:49;5.00;;;4.25;;
10430;SDS011;5262;59.958;17.726;2023-06-14T14:01:16;4.43;;;4.03;;
10430;SDS011;5262;59.958;17.726;2023-06-14T14:03:43;4.43;;;3.85;;
10430;SDS011;5262;59.958;17.726;2023-06-14T14:06:10;4.55;;;4.15;;
10430;SDS011;5262;59.958;17.726;2023-06-14T14:08:35;4.40;;;4.00;;
10430;SDS011;5262;59.958;17.726;2023-06-14T14:11:01;6.57;;;4.00;;
10430;SDS011;5262;59.958;17.726;2023-06-14T14:13:27;6.25;;;4.18;;
10430;SDS011;5262;59.958;17.726;2023-06-14T14:15:53;4.57;;;4.10;;
10430;SDS011;5262;59.958;17.726;2023-06-14T14:18:19;4.25;;;3.88;;
10430;SDS011;5262;59.958;17.726;2023-06-14T14:20:46;4.55;;;4.15;;
10430;SDS011;5262;59.958;17.726;2023-06-14T14:23:12;5.82;;;4.57;;
10430;SDS011;5262;59.958;17.726;2023-06-14T14:25:37;4.68;;;4.20;;
10430;SDS011;5262;59.958;17.726;2023-06-14T14:28:03;4.65;;;4.22;;
10430;SDS011;5262;59.958;17.726;2023-06-14T14:30:29;5.53;;;4.07;;
10430;SDS011;5262;59.958;17.726;2023-06-14T14:32:55;5.95;;;4.40;;
10430;SDS011;5262;59.958;17.726;2023-06-14T14:35:20;4.22;;;3.83;;
10430;SDS011;5262;59.958;17.726;2023-06-14T14:37:47;4.72;;;4.28;;
10430;SDS011;5262;59.958;17.726;2023-06-14T14:40:13;4.85;;;4.40;;
10430;SDS011;5262;59.958;17.726;2023-06-14T14:42:39;5.15;;;4.60;;
10430;SDS011;5262;59.958;17.726;2023-06-14T14:45:04;4.15;;;3.60;;
10430;SDS011;5262;59.958;17.726;2023-06-14T14:47:31;5.03;;;4.15;;
10430;SDS011;5262;59.958;17.726;2023-06-14T14:49:56;5.43;;;4.22;;
10430;SDS011;5262;59.958;17.726;2023-06-14T14:52:22;5.00;;;4.60;;
10430;SDS011;5262;59.958;17.726;2023-06-14T14:54:47;5.35;;;4.20;;
10430;SDS011;5262;59.958;17.726;2023-06-14T14:57:13;4.68;;;4.22;;
10430;SDS011;5262;59.958;17.726;2023-06-14T14:59:39;4.78;;;4.30;;
10430;SDS011;5262;59.958;17.726;2023-06-14T15:02:05;4.38;;;3.92;;
10430;SDS011;5262;59.958;17.726;2023-06-14T15:04:31;6.07;;;4.15;;
10430;SDS011;5262;59.958;17.726;2023-06-14T15:06:57;5.55;;;4.32;;
10430;SDS011;5262;59.958;17.726;2023-06-14T15:09:22;5.40;;;4.38;;